createdAt,value
2018-12-15T00:02:06.573Z,1.20
2018-12-15T00:04:35.753Z,1.10
2018-12-15T00:07:32.715Z,1.10
2018-12-15T00:10:12.234Z,1.10
2018-12-15T00:15:26.816Z,1.00
2018-12-15T00:18:01.536Z,1.00
2018-12-15T00:23:13.749Z,1.00
2018-12-15T00:25:48.398Z,1.00
2018-12-15T00:28:17.943Z,1.00
2018-12-15T00:30:52.896Z,1.00
2018-12-15T00:33:23.345Z,1.00
2018-12-15T00:35:55.944Z,1.10
2018-12-15T00:38:35.064Z,1.20
2018-12-15T00:41:10.505Z,1.10
2018-12-15T00:43:42.279Z,1.10
2018-12-15T00:46:18.663Z,1.10
2018-12-15T00:48:58.106Z,1.10
2018-12-15T00:51:30.277Z,1.00
2018-12-15T00:54:04.885Z,1.10
2018-12-15T00:56:41.875Z,1.10
2018-12-15T00:59:13.669Z,1.10
2018-12-15T01:01:58.751Z,1.00
2018-12-15T01:07:38.803Z,1.00
2018-12-15T01:10:18.940Z,1.10
2018-12-15T01:12:57.451Z,1.10
2018-12-15T01:15:35.834Z,1.00
2018-12-15T01:18:07.722Z,1.00
2018-12-15T01:20:41.121Z,1.10
2018-12-15T01:23:17.539Z,1.00
2018-12-15T01:25:50.869Z,1.00
2018-12-15T01:28:27.574Z,1.00
2018-12-15T01:30:58.515Z,1.00
2018-12-15T01:33:29.045Z,1.00
2018-12-15T01:35:59.557Z,1.10
2018-12-15T01:38:34.865Z,1.10
2018-12-15T01:41:06.367Z,1.10
2018-12-15T01:43:39.479Z,1.00
2018-12-15T01:46:09.270Z,1.00
2018-12-15T01:48:38.454Z,1.00
2018-12-15T01:51:07.530Z,1.00
2018-12-15T01:53:40.853Z,1.00
2018-12-15T01:56:12.500Z,1.00
2018-12-15T01:58:42.271Z,0.90
2018-12-15T02:01:13.926Z,0.90
2018-12-15T02:03:43.244Z,0.90
2018-12-15T02:06:14.608Z,0.90
2018-12-15T02:08:50.801Z,0.90
2018-12-15T02:11:26.448Z,0.90
2018-12-15T02:14:02.696Z,0.90
2018-12-15T02:16:40.183Z,0.90
2018-12-15T02:19:12.557Z,0.80
2018-12-15T02:21:43.352Z,0.90
2018-12-15T02:24:15.048Z,0.80
2018-12-15T02:26:47.071Z,0.80
2018-12-15T02:36:10.535Z,1.00
2018-12-15T02:38:42.004Z,1.00
2018-12-15T02:41:14.935Z,1.00
2018-12-15T02:43:43.894Z,1.00
2018-12-15T02:46:15.140Z,1.00
2018-12-15T02:48:47.924Z,1.00
2018-12-15T02:51:18.390Z,0.90
2018-12-15T02:53:54.664Z,1.00
2018-12-15T02:56:25.074Z,1.00
2018-12-15T02:59:04.642Z,1.00
2018-12-15T03:01:33.994Z,1.00
2018-12-15T03:04:05.661Z,1.10
2018-12-15T03:06:34.926Z,1.00
2018-12-15T03:09:12.828Z,1.10
2018-12-15T03:11:55.999Z,1.10
2018-12-15T03:14:27.775Z,1.10
2018-12-15T03:17:07.860Z,1.10
2018-12-15T03:19:38.155Z,1.10
2018-12-15T03:22:07.155Z,1.10
2018-12-15T03:24:39.909Z,1.20
2018-12-15T03:27:08.968Z,1.20
2018-12-15T03:29:49.012Z,1.20
2018-12-15T03:32:19.470Z,1.20
2018-12-15T03:34:59.049Z,1.20
2018-12-15T03:40:07.654Z,1.10
2018-12-15T03:42:41.243Z,1.10
2018-12-15T03:45:13.073Z,1.10
2018-12-15T03:47:42.109Z,1.10
2018-12-15T03:50:11.269Z,1.10
2018-12-15T03:52:41.961Z,1.10
2018-12-15T03:55:14.408Z,1.20
2018-12-15T03:57:51.144Z,1.20
2018-12-15T04:00:22.432Z,1.20
2018-12-15T04:02:53.047Z,1.10
2018-12-15T04:05:25.096Z,1.10
2018-12-15T04:07:56.604Z,1.10
2018-12-15T04:10:27.229Z,1.10
2018-12-15T04:12:56.443Z,1.10
2018-12-15T04:15:25.578Z,1.10
2018-12-15T04:17:54.874Z,1.10
2018-12-15T04:20:24.605Z,1.10
2018-12-15T04:23:03.617Z,1.10
2018-12-15T04:25:33.727Z,1.10
2018-12-15T04:28:02.889Z,1.10
2018-12-15T04:30:33.228Z,1.10
2018-12-15T04:33:03.662Z,1.10
2018-12-15T04:35:32.673Z,1.10
2018-12-15T04:38:01.816Z,1.20
2018-12-15T04:40:39.104Z,1.20
2018-12-15T04:43:15.128Z,1.20
2018-12-15T04:45:44.163Z,1.20
2018-12-15T04:48:15.281Z,1.20
2018-12-15T04:50:50.534Z,1.20
2018-12-15T04:53:22.901Z,1.20
2018-12-15T04:55:52.102Z,1.20
2018-12-15T04:58:21.264Z,1.20
2018-12-15T05:00:50.761Z,1.30
2018-12-15T05:03:19.883Z,1.40
2018-12-15T05:05:57.944Z,1.40
2018-12-15T05:08:32.979Z,1.40
2018-12-15T05:11:06.169Z,1.40
2018-12-15T05:13:38.805Z,1.30
2018-12-15T05:16:10.722Z,1.30
2018-12-15T05:18:39.835Z,1.30
2018-12-15T05:21:10.575Z,1.30
2018-12-15T05:23:48.880Z,1.30
2018-12-15T05:26:20.129Z,1.20
2018-12-15T05:28:54.479Z,1.20
2018-12-15T05:31:24.810Z,1.10
2018-12-15T05:33:54.978Z,1.20
2018-12-15T05:36:27.100Z,1.20
2018-12-15T05:38:57.401Z,1.20
2018-12-15T05:41:33.154Z,1.10
2018-12-15T05:44:02.259Z,1.10
2018-12-15T05:46:31.356Z,1.10
2018-12-15T05:49:00.440Z,1.20
2018-12-15T05:51:30.398Z,1.20
2018-12-15T05:53:59.478Z,1.20
2018-12-15T05:56:32.092Z,1.30
2018-12-15T05:59:01.707Z,1.40
2018-12-15T06:01:31.021Z,1.30
2018-12-15T06:04:00.229Z,1.20
2018-12-15T06:06:31.277Z,1.10
2018-12-15T06:09:00.298Z,1.20
2018-12-15T06:11:29.383Z,1.10
2018-12-15T06:14:04.206Z,1.10
2018-12-15T06:16:37.069Z,1.10
2018-12-15T06:19:06.265Z,1.10
2018-12-15T06:21:39.566Z,1.00
2018-12-15T06:24:10.981Z,1.10
2018-12-15T06:26:44.109Z,1.20
2018-12-15T06:29:16.569Z,1.20
2018-12-15T06:31:45.813Z,1.10
2018-12-15T06:34:14.953Z,1.10
2018-12-15T06:36:43.991Z,1.20
2018-12-15T06:39:13.031Z,1.20
2018-12-15T06:41:48.199Z,1.30
2018-12-15T06:44:23.200Z,1.30
2018-12-15T06:46:52.986Z,1.30
2018-12-15T06:49:22.218Z,1.40
2018-12-15T06:51:52.247Z,1.20
2018-12-15T06:54:21.389Z,1.30
2018-12-15T07:01:51.234Z,1.20
2018-12-15T07:04:25.861Z,1.30
2018-12-15T07:06:55.007Z,1.30
2018-12-15T07:09:24.356Z,1.30
2018-12-15T07:11:55.964Z,1.30
2018-12-15T07:14:31.156Z,1.30
2018-12-15T07:17:05.003Z,1.20
2018-12-15T07:19:34.256Z,1.10
2018-12-15T07:22:03.666Z,1.10
2018-12-15T07:24:38.418Z,1.20
2018-12-15T07:27:20.750Z,1.20
2018-12-15T07:29:53.296Z,1.20
2018-12-15T07:32:22.902Z,1.30
2018-12-15T07:35:00.928Z,1.30
2018-12-15T07:37:26.316Z,1.30
2018-12-15T07:39:56.418Z,1.40
2018-12-15T07:42:32.702Z,1.30
2018-12-15T07:45:02.262Z,1.40
2018-12-15T07:47:40.254Z,1.40
2018-12-15T07:50:11.059Z,1.40
2018-12-15T07:52:41.188Z,1.40
2018-12-15T07:55:10.776Z,1.40
2018-12-15T07:57:45.946Z,1.30
2018-12-15T08:00:15.816Z,1.40
2018-12-15T08:02:45.717Z,1.30
2018-12-15T08:05:18.724Z,1.30
2018-12-15T08:07:54.664Z,1.40
2018-12-15T08:10:26.584Z,1.40
2018-12-15T08:12:57.658Z,1.40
2018-12-15T08:15:35.142Z,1.30
2018-12-15T08:18:18.248Z,1.20
2018-12-15T08:20:48.422Z,1.30
2018-12-15T08:23:20.104Z,1.30
2018-12-15T08:25:53.644Z,1.40
2018-12-15T08:28:30.810Z,1.40
2018-12-15T08:31:05.789Z,1.50
2018-12-15T08:33:35.304Z,1.50
2018-12-15T08:36:04.948Z,1.60
2018-12-15T08:38:34.812Z,1.50
2018-12-15T08:41:36.473Z,1.50
2018-12-15T08:44:08.430Z,1.60
2018-12-15T08:46:38.628Z,1.50
2018-12-15T08:49:15.178Z,1.50
2018-12-15T08:51:46.178Z,1.60
2018-12-15T08:54:17.768Z,1.60
2018-12-15T08:56:47.842Z,1.60
2018-12-15T08:59:19.378Z,1.70
2018-12-15T09:01:53.773Z,1.70
2018-12-15T09:04:23.650Z,1.70
2018-12-15T09:06:55.570Z,1.70
2018-12-15T09:09:28.188Z,1.70
2018-12-15T09:12:03.674Z,1.60
2018-12-15T09:14:36.545Z,1.70
2018-12-15T09:17:09.277Z,1.70
2018-12-15T09:19:45.661Z,1.60
2018-12-15T09:22:15.076Z,1.60
2018-12-15T09:24:49.616Z,1.70
2018-12-15T09:27:19.327Z,1.80
2018-12-15T09:29:57.073Z,1.80
2018-12-15T09:32:27.691Z,1.80
2018-12-15T09:35:01.718Z,1.80
2018-12-15T09:37:32.713Z,1.80
2018-12-15T09:40:01.903Z,2.00
2018-12-15T09:42:33.640Z,2.10
2018-12-15T09:45:03.011Z,2.20
2018-12-15T09:47:32.292Z,2.10
2018-12-15T09:50:08.855Z,2.10
2018-12-15T09:52:40.357Z,2.00
2018-12-15T09:55:10.404Z,2.00
2018-12-15T09:57:48.299Z,2.10
2018-12-15T10:00:21.105Z,2.00
2018-12-15T10:02:53.331Z,2.20
2018-12-15T10:05:23.341Z,2.20
2018-12-15T10:07:52.606Z,2.20
2018-12-15T10:10:21.742Z,2.20
2018-12-15T10:12:53.889Z,2.20
2018-12-15T10:15:22.919Z,2.20
2018-12-15T10:20:37.273Z,2.10
2018-12-15T10:23:12.548Z,2.10
2018-12-15T10:25:51.984Z,2.10
2018-12-15T10:28:22.112Z,2.10
2018-12-15T10:30:58.592Z,2.10
2018-12-15T10:33:27.682Z,2.20
2018-12-15T10:35:56.742Z,2.30
2018-12-15T10:38:27.992Z,2.30
2018-12-15T10:41:05.018Z,2.20
2018-12-15T10:43:34.260Z,2.30
2018-12-15T10:46:03.696Z,2.20
2018-12-15T10:48:33.119Z,2.20
2018-12-15T10:51:08.755Z,2.30
2018-12-15T10:53:38.083Z,2.20
2018-12-15T10:56:07.635Z,2.00
2018-12-15T10:58:36.730Z,2.00
2018-12-15T11:01:14.499Z,2.10
2018-12-15T11:03:43.709Z,2.20
2018-12-15T11:06:12.792Z,2.20
2018-12-15T11:08:45.054Z,2.30
2018-12-15T11:11:16.469Z,2.30
2018-12-15T11:13:46.206Z,2.20
2018-12-15T11:16:25.221Z,2.20
2018-12-15T11:18:57.794Z,2.20
2018-12-15T11:21:27.407Z,2.10
2018-12-15T11:24:04.835Z,2.00
2018-12-15T11:27:40.732Z,1.90
2018-12-15T11:30:10.444Z,2.00
2018-12-15T11:32:39.813Z,2.00
2018-12-15T11:35:12.683Z,2.10
2018-12-15T11:37:43.168Z,2.10
2018-12-15T11:40:13.693Z,2.10
2018-12-15T11:42:44.993Z,2.20
2018-12-15T11:45:14.509Z,2.10
2018-12-15T11:47:48.661Z,2.10
2018-12-15T11:50:18.821Z,2.20
2018-12-15T11:52:47.977Z,2.20
2018-12-15T11:55:17.721Z,2.30
2018-12-15T11:57:49.098Z,2.40
2018-12-15T12:00:19.401Z,2.40
2018-12-15T12:02:53.664Z,2.40
2018-12-15T12:05:31.055Z,2.30
2018-12-15T12:08:00.392Z,2.30
2018-12-15T12:10:31.798Z,2.40
2018-12-15T12:13:02.016Z,2.40
2018-12-15T12:15:33.338Z,2.30
2018-12-15T12:18:05.524Z,2.30
2018-12-15T12:20:35.655Z,2.30
2018-12-15T12:23:05.387Z,2.40
2018-12-15T12:25:35.496Z,2.50
2018-12-15T12:28:11.462Z,2.60
2018-12-15T12:30:41.316Z,2.50
2018-12-15T12:33:10.892Z,2.40
2018-12-15T12:35:43.670Z,2.40
2018-12-15T12:41:05.259Z,2.30
2018-12-15T12:43:43.323Z,2.30
2018-12-15T12:46:13.194Z,2.30
2018-12-15T12:48:42.798Z,2.30
2018-12-15T12:51:13.673Z,2.30
2018-12-15T12:53:52.295Z,2.40
2018-12-15T12:56:23.410Z,2.50
2018-12-15T12:58:54.518Z,2.60
2018-12-15T13:01:24.882Z,2.60
2018-12-15T13:03:55.389Z,2.70
2018-12-15T13:06:27.513Z,2.70
2018-12-15T13:09:06.605Z,2.50
2018-12-15T13:11:38.849Z,2.40
2018-12-15T13:14:08.254Z,2.30
2018-12-15T13:16:37.890Z,2.30
2018-12-15T13:19:07.216Z,2.40
2018-12-15T13:21:44.292Z,2.50
2018-12-15T13:24:13.391Z,2.50
2018-12-15T13:26:48.303Z,2.40
2018-12-15T13:29:17.680Z,2.40
2018-12-15T13:31:47.808Z,2.50
2018-12-15T13:34:17.036Z,2.50
2018-12-15T13:36:53.768Z,2.60
2018-12-15T13:39:24.318Z,2.60
2018-12-15T13:42:01.592Z,2.50
2018-12-15T13:44:37.952Z,2.50
2018-12-15T13:47:07.502Z,2.50
2018-12-15T13:49:36.759Z,2.40
2018-12-15T13:52:06.674Z,2.50
2018-12-15T13:54:35.922Z,2.50
2018-12-15T13:57:04.929Z,2.50
2018-12-15T13:59:34.104Z,2.30
2018-12-15T14:02:03.165Z,2.30
2018-12-15T14:04:32.475Z,2.30
2018-12-15T14:07:02.189Z,2.30
2018-12-15T14:09:32.870Z,2.30
2018-12-15T14:12:06.237Z,2.30
2018-12-15T14:14:35.403Z,2.30
2018-12-15T14:17:06.985Z,2.20
2018-12-15T14:19:36.661Z,2.30
2018-12-15T14:22:06.516Z,2.30
2018-12-15T14:24:36.443Z,2.30
2018-12-15T14:27:32.270Z,2.20
2018-12-15T14:30:01.573Z,2.20
2018-12-15T14:32:31.064Z,2.20
2018-12-15T14:35:01.631Z,2.20
2018-12-15T14:37:30.737Z,2.30
2018-12-15T14:40:00.138Z,2.40
2018-12-15T14:42:32.086Z,2.40
2018-12-15T14:45:01.281Z,2.30
2018-12-15T14:47:30.420Z,2.20
2018-12-15T14:50:06.375Z,2.20
2018-12-15T14:52:35.909Z,2.20
2018-12-15T14:55:05.713Z,2.20
2018-12-15T14:57:35.131Z,2.20
2018-12-15T15:00:19.232Z,2.10
2018-12-15T15:02:48.404Z,2.10
2018-12-15T15:05:17.724Z,2.10
2018-12-15T15:07:52.226Z,2.00
2018-12-15T15:10:21.553Z,2.00
2018-12-15T15:12:52.992Z,2.00
2018-12-15T15:15:23.019Z,2.00
2018-12-15T15:17:52.603Z,2.00
2018-12-15T15:20:29.646Z,2.00
2018-12-15T15:22:52.987Z,1.90
2018-12-15T15:25:23.041Z,1.90
2018-12-15T15:27:52.147Z,1.90
2018-12-15T15:30:21.180Z,2.00
2018-12-15T15:32:50.957Z,2.00
2018-12-15T15:35:22.270Z,2.00
2018-12-15T15:37:51.725Z,1.90
2018-12-15T15:40:20.963Z,2.00
2018-12-15T15:42:54.463Z,2.00
2018-12-15T15:45:27.257Z,2.00
2018-12-15T15:47:57.022Z,1.90
2018-12-15T15:50:28.287Z,2.00
2018-12-15T15:52:57.633Z,2.00
2018-12-15T15:55:33.214Z,2.00
2018-12-15T15:58:11.407Z,1.90
2018-12-15T16:00:42.847Z,2.00
2018-12-15T16:03:12.211Z,2.00
2018-12-15T16:05:41.568Z,2.00
2018-12-15T16:08:10.767Z,1.90
2018-12-15T16:10:43.246Z,2.00
2018-12-15T16:13:14.536Z,2.00
2018-12-15T16:15:43.692Z,2.00
2018-12-15T16:18:13.232Z,1.90
2018-12-15T16:20:44.286Z,1.90
2018-12-15T16:23:16.543Z,1.80
2018-12-15T16:25:47.593Z,1.80
2018-12-15T16:28:16.927Z,1.90
2018-12-15T16:30:46.142Z,2.00
2018-12-15T16:33:15.339Z,1.90
2018-12-15T16:35:48.663Z,1.80
2018-12-15T16:38:18.055Z,1.80
2018-12-15T16:40:47.825Z,1.80
2018-12-15T16:43:19.240Z,1.80
2018-12-15T16:45:48.399Z,1.80
2018-12-15T16:48:18.196Z,1.80
2018-12-15T16:50:51.030Z,1.80
2018-12-15T16:53:22.358Z,1.80
2018-12-15T16:55:52.753Z,1.80
2018-12-15T16:58:22.033Z,1.80
2018-12-15T17:00:52.651Z,1.70
2018-12-15T17:03:30.386Z,1.70
2018-12-15T17:05:54.802Z,1.70
2018-12-15T17:08:23.884Z,1.80
2018-12-15T17:10:53.855Z,1.80
2018-12-15T17:13:23.007Z,1.80
2018-12-15T17:15:55.938Z,1.80
2018-12-15T17:18:25.308Z,1.70
2018-12-15T17:20:56.837Z,1.80
2018-12-15T17:23:25.795Z,1.80
2018-12-15T17:25:56.769Z,1.80
2018-12-15T17:28:32.311Z,1.80
2018-12-15T17:31:01.917Z,1.80
2018-12-15T17:33:34.236Z,1.80
2018-12-15T17:36:07.513Z,1.80
2018-12-15T17:38:37.006Z,1.70
2018-12-15T17:41:14.088Z,1.70
2018-12-15T17:43:43.065Z,1.70
2018-12-15T17:46:12.231Z,1.80
2018-12-15T17:48:41.887Z,1.80
2018-12-15T17:51:18.945Z,1.80
2018-12-15T17:53:48.537Z,1.70
2018-12-15T17:56:17.718Z,1.70
2018-12-15T17:58:46.787Z,1.70
2018-12-15T18:01:23.619Z,1.70
2018-12-15T18:03:52.584Z,1.70
2018-12-15T18:06:23.042Z,1.60
2018-12-15T18:08:53.261Z,1.50
2018-12-15T18:11:23.157Z,1.60
2018-12-15T18:13:58.683Z,1.60
2018-12-15T18:16:27.872Z,1.60
2018-12-15T18:19:00.019Z,1.60
2018-12-15T18:21:29.276Z,1.60
2018-12-15T18:23:58.544Z,1.60
2018-12-15T18:26:28.894Z,1.50
2018-12-15T18:28:59.261Z,1.50
2018-12-15T18:31:29.747Z,1.60
2018-12-15T18:33:58.830Z,1.60
2018-12-15T18:36:27.895Z,1.60
2018-12-15T18:38:56.978Z,1.60
2018-12-15T18:41:26.201Z,1.50
2018-12-15T18:43:55.527Z,1.40
2018-12-15T18:46:25.223Z,1.40
2018-12-15T18:48:57.134Z,1.40
2018-12-15T18:51:28.767Z,1.40
2018-12-15T18:54:00.507Z,1.50
2018-12-15T18:56:32.599Z,1.50
2018-12-15T18:59:08.781Z,1.50
2018-12-15T19:01:44.190Z,1.50
2018-12-15T19:04:13.239Z,1.50
2018-12-15T19:06:47.090Z,1.50
2018-12-15T19:09:19.153Z,1.50
2018-12-15T19:11:51.392Z,1.50
2018-12-15T19:14:21.039Z,1.50
2018-12-15T19:16:51.742Z,1.60
2018-12-15T19:19:22.940Z,1.60
2018-12-15T19:21:53.588Z,1.50
2018-12-15T19:24:23.197Z,1.50
2018-12-15T19:26:53.057Z,1.50
2018-12-15T19:29:22.188Z,1.40
2018-12-15T19:31:52.096Z,1.40
2018-12-15T19:34:24.653Z,1.40
2018-12-15T19:36:57.096Z,1.40
2018-12-15T19:39:26.153Z,1.40
2018-12-15T19:41:55.685Z,1.40
2018-12-15T19:44:28.365Z,1.40
2018-12-15T19:47:04.206Z,1.40
2018-12-15T19:49:38.833Z,1.40
2018-12-15T19:52:08.223Z,1.40
2018-12-15T19:54:37.700Z,1.40
2018-12-15T19:57:16.054Z,1.40
2018-12-15T19:59:47.514Z,1.40
2018-12-15T20:02:19.939Z,1.40
2018-12-15T20:04:52.813Z,1.40
2018-12-15T20:07:26.875Z,1.40
2018-12-15T20:10:02.288Z,1.50
2018-12-15T20:12:38.371Z,1.40
2018-12-15T20:15:07.517Z,1.40
2018-12-15T20:17:37.690Z,1.40
2018-12-15T20:20:06.996Z,1.30
2018-12-15T20:22:40.271Z,1.40
2018-12-15T20:25:11.201Z,1.40
2018-12-15T20:27:46.382Z,1.30
2018-12-15T20:30:20.609Z,1.30
2018-12-15T20:32:50.977Z,1.30
2018-12-15T20:35:21.446Z,1.20
2018-12-15T20:37:59.529Z,1.30
2018-12-15T20:40:38.540Z,1.30
2018-12-15T20:43:13.575Z,1.30
2018-12-15T20:45:49.509Z,1.30
2018-12-15T20:48:19.780Z,1.30
2018-12-15T20:50:56.783Z,1.40
2018-12-15T20:53:26.851Z,1.30
2018-12-15T20:55:56.531Z,1.30
2018-12-15T20:58:26.015Z,1.20
2018-12-15T21:00:59.241Z,1.20
2018-12-15T21:03:29.148Z,1.30
2018-12-15T21:06:02.511Z,1.20
2018-12-15T21:08:32.525Z,1.20
2018-12-15T21:11:02.841Z,1.20
2018-12-15T21:13:31.994Z,1.20
2018-12-15T21:16:10.514Z,1.20
2018-12-15T21:18:42.502Z,1.20
2018-12-15T21:21:11.974Z,1.20
2018-12-15T21:23:46.644Z,1.20
2018-12-15T21:26:17.881Z,1.20
2018-12-15T21:28:51.012Z,1.20
2018-12-15T21:31:21.030Z,1.20
2018-12-15T21:33:51.019Z,1.20
2018-12-15T21:36:20.451Z,1.20
2018-12-15T21:38:50.963Z,1.20
2018-12-15T21:41:26.151Z,1.20
2018-12-15T21:44:03.891Z,1.30
2018-12-15T21:46:36.500Z,1.30
2018-12-15T21:49:07.231Z,1.30
2018-12-15T21:51:36.447Z,1.30
2018-12-15T21:54:06.831Z,1.40
2018-12-15T21:56:37.942Z,1.40
2018-12-15T21:59:19.176Z,1.40
2018-12-15T22:01:56.250Z,1.30
2018-12-15T22:04:26.704Z,1.30
2018-12-15T22:07:03.878Z,1.30
2018-12-15T22:09:33.797Z,1.30
2018-12-15T22:12:03.584Z,1.30
2018-12-15T22:14:33.854Z,1.30
2018-12-15T22:17:09.766Z,1.30
2018-12-15T22:19:41.191Z,1.20
2018-12-15T22:22:14.986Z,1.20
2018-12-15T22:24:54.562Z,1.20
2018-12-15T22:27:25.861Z,1.20
2018-12-15T22:29:59.439Z,1.20
2018-12-15T22:32:28.720Z,1.20
2018-12-15T22:34:57.840Z,1.30
2018-12-15T22:37:29.187Z,1.30
2018-12-15T22:39:59.118Z,1.20
2018-12-15T22:42:28.332Z,1.20
2018-12-15T22:44:58.354Z,1.20
2018-12-15T22:47:28.700Z,1.30
2018-12-15T22:49:59.762Z,1.30
2018-12-15T22:52:31.072Z,1.30
2018-12-15T22:55:00.745Z,1.30
2018-12-15T22:57:30.967Z,1.40
2018-12-15T23:00:00.934Z,1.40
2018-12-15T23:05:21.221Z,1.40
2018-12-15T23:07:58.405Z,1.40
2018-12-15T23:10:27.553Z,1.40
2018-12-15T23:13:01.409Z,1.40
2018-12-15T23:15:36.927Z,1.40
2018-12-15T23:18:07.196Z,1.30
2018-12-15T23:20:37.759Z,1.40
2018-12-15T23:23:07.543Z,1.30
2018-12-15T23:25:46.402Z,1.40
2018-12-15T23:28:25.652Z,1.40
